Time;durP1;ratioP1;P1;durP2;ratioP2;P2;SDS_P1;SDS_P2;PMS_P1;PMS_P2;Temp;Humidity;BMP_temperature;BMP_pressure;BME280_temperature;BME280_humidity;BME280_pressure;Samples;Min_cycle;Max_cycle;Signal;HPM_P1;HPM_P2
2021/03/01 00:00:28;;;;;;;23.50;12.87;;;3.70;99.90;;;;;;5010254;28;20188;-64
2021/03/01 00:02:55;;;;;;;22.33;13.80;;;3.60;99.90;;;;;;4995252;28;20173;-64
2021/03/01 00:05:21;;;;;;;24.70;13.57;;;3.50;99.90;;;;;;4996917;28;20686;-64
2021/03/01 00:07:47;;;;;;;26.60;14.40;;;3.40;99.90;;;;;;5014883;28;20180;-64
2021/03/01 00:10:14;;;;;;;26.60;14.67;;;3.40;99.90;;;;;;5013415;28;20204;-64
2021/03/01 00:12:41;;;;;;;29.50;14.03;;;3.40;99.90;;;;;;4994976;28;20243;-63
2021/03/01 00:15:09;;;;;;;28.80;14.77;;;3.30;99.90;;;;;;5011771;28;20212;-63
2021/03/01 00:17:35;;;;;;;28.97;15.07;;;3.30;99.90;;;;;;5014472;28;20287;-64
2021/03/01 00:20:06;;;;;;;24.43;13.23;;;3.30;99.90;;;;;;4998201;28;20555;-64
2021/03/01 00:22:32;;;;;;;24.57;13.73;;;3.20;99.90;;;;;;4994738;28;20181;-64
2021/03/01 00:24:58;;;;;;;25.37;13.90;;;3.20;99.90;;;;;;5009464;28;20214;-62
2021/03/01 00:27:23;;;;;;;27.03;14.13;;;3.20;99.90;;;;;;5014232;28;20556;-63
2021/03/01 00:29:49;;;;;;;28.43;13.80;;;3.10;99.90;;;;;;5000822;28;20717;-62
2021/03/01 00:32:14;;;;;;;32.13;13.90;;;3.10;99.90;;;;;;4994750;28;20170;-62
2021/03/01 00:34:40;;;;;;;26.17;13.03;;;3.10;99.90;;;;;;5005721;28;20291;-62
2021/03/01 00:37:06;;;;;;;27.33;13.73;;;3.10;99.90;;;;;;5014130;28;20620;-61
2021/03/01 00:39:32;;;;;;;29.43;14.73;;;3.10;99.90;;;;;;5003965;28;20173;-64
2021/03/01 00:41:57;;;;;;;27.83;12.70;;;3.10;99.90;;;;;;5002016;28;20172;-64
2021/03/01 00:44:23;;;;;;;26.17;13.10;;;3.10;99.90;;;;;;5013923;28;20231;-63
2021/03/01 00:46:48;;;;;;;27.07;14.03;;;3.00;99.90;;;;;;5007720;28;20643;-63
2021/03/01 00:49:14;;;;;;;30.27;14.00;;;3.00;99.90;;;;;;4993417;28;20284;-63
2021/03/01 00:51:39;;;;;;;24.03;13.97;;;3.00;99.90;;;;;;4998178;28;20184;-63
2021/03/01 00:54:05;;;;;;;22.30;12.83;;;3.00;99.90;;;;;;5013926;28;20195;-62
2021/03/01 00:56:31;;;;;;;26.33;13.97;;;3.00;99.90;;;;;;5010725;28;20305;-64
2021/03/01 00:58:56;;;;;;;22.80;12.23;;;3.10;99.90;;;;;;4994330;28;20184;-64
2021/03/01 01:01:22;;;;;;;25.77;13.93;;;3.00;99.90;;;;;;4994317;28;20256;-63
2021/03/01 01:03:47;;;;;;;25.17;13.63;;;3.00;99.90;;;;;;5013531;28;20562;-64
2021/03/01 01:06:13;;;;;;;30.97;14.33;;;3.00;99.90;;;;;;5013934;28;20176;-64
2021/03/01 01:08:39;;;;;;;29.57;13.37;;;3.00;99.90;;;;;;4994255;28;20200;-64
2021/03/01 01:11:04;;;;;;;28.67;13.97;;;2.80;99.90;;;;;;5008947;28;20230;-64
2021/03/01 01:13:30;;;;;;;28.50;14.30;;;2.80;99.90;;;;;;5013265;28;20182;-63
2021/03/01 01:15:56;;;;;;;24.53;12.80;;;2.70;99.90;;;;;;4999361;28;20411;-63
2021/03/01 01:18:22;;;;;;;28.70;13.77;;;2.70;99.90;;;;;;4993752;28;20173;-62
2021/03/01 01:20:48;;;;;;;24.80;13.17;;;2.70;99.90;;;;;;5005501;28;20176;-62
2021/03/01 01:23:13;;;;;;;23.70;13.33;;;2.60;99.90;;;;;;5013328;28;20325;-63
2021/03/01 01:25:39;;;;;;;24.13;13.50;;;2.60;99.90;;;;;;5002329;28;20216;-63
2021/03/01 01:28:05;;;;;;;27.57;13.77;;;2.60;99.90;;;;;;4993743;28;20208;-62
2021/03/01 01:30:31;;;;;;;30.93;14.13;;;2.60;99.90;;;;;;5001695;28;20203;-64
2021/03/01 01:32:56;;;;;;;36.50;14.80;;;2.60;99.90;;;;;;5013232;28;20172;-64
2021/03/01 01:35:22;;;;;;;33.50;14.60;;;2.50;99.90;;;;;;5005353;28;20196;-62
2021/03/01 01:37:48;;;;;;;27.80;12.80;;;2.50;99.90;;;;;;4993530;28;20255;-62
2021/03/01 01:40:17;;;;;;;27.50;13.63;;;2.50;99.90;;;;;;4998408;28;20179;-64
2021/03/01 01:42:42;;;;;;;26.60;13.47;;;2.40;99.90;;;;;;5012962;28;20167;-64
2021/03/01 01:45:11;;;;;;;29.63;14.43;;;2.40;99.90;;;;;;5008485;28;20204;-64
2021/03/01 01:47:38;;;;;;;32.87;14.60;;;2.40;99.90;;;;;;4993212;28;20196;-62
2021/03/01 01:50:06;;;;;;;29.17;14.23;;;2.40;99.90;;;;;;4993195;28;20576;-63
2021/03/01 01:52:31;;;;;;;36.57;15.60;;;2.40;99.90;;;;;;4993073;28;20595;-64
2021/03/01 01:54:57;;;;;;;34.90;17.27;;;2.50;99.90;;;;;;5009259;28;20204;-62
2021/03/01 01:57:24;;;;;;;29.53;14.20;;;2.50;99.90;;;;;;5012409;28;20173;-63
2021/03/01 01:59:50;;;;;;;42.67;16.70;;;2.50;99.90;;;;;;5009114;28;20665;-63
2021/03/01 02:02:16;;;;;;;39.20;17.27;;;2.40;99.90;;;;;;5012606;28;20168;-63
2021/03/01 02:04:48;;;;;;;39.43;17.63;;;2.50;99.90;;;;;;4998971;28;20544;-62
2021/03/01 02:07:27;;;;;;;38.97;19.30;;;2.50;99.90;;;;;;4992773;28;20243;-62
2021/03/01 02:10:26;;;;;;;38.40;17.67;;;2.50;99.90;;;;;;5006601;28;20222;-64
2021/03/01 02:13:10;;;;;;;37.13;18.53;;;2.50;99.90;;;;;;5010628;28;20187;-64
2021/03/01 02:15:52;;;;;;;43.93;20.27;;;2.60;99.90;;;;;;5012077;28;20234;-64
2021/03/01 02:18:18;;;;;;;52.17;20.57;;;2.50;99.90;;;;;;4995875;28;20497;-64
2021/03/01 02:20:45;;;;;;;45.33;22.03;;;2.50;99.90;;;;;;5000282;28;20184;-64
2021/03/01 02:23:12;;;;;;;49.53;21.60;;;2.50;99.90;;;;;;4998497;28;20260;-63
2021/03/01 02:25:56;;;;;;;48.40;22.67;;;2.50;99.90;;;;;;4999246;28;20524;-63
2021/03/01 02:28:27;;;;;;;51.13;23.67;;;2.50;99.90;;;;;;5012436;28;20172;-62
2021/03/01 02:30:56;;;;;;;53.07;24.47;;;2.50;99.90;;;;;;5008554;28;20195;-63
2021/03/01 02:33:26;;;;;;;56.30;22.83;;;2.50;99.90;;;;;;5010234;28;20176;-63
2021/03/01 02:36:00;;;;;;;57.90;24.40;;;2.50;99.90;;;;;;5012011;28;20298;-62
2021/03/01 02:38:27;;;;;;;60.37;25.17;;;2.50;99.90;;;;;;5010432;28;20246;-62
2021/03/01 02:40:55;;;;;;;58.77;24.20;;;2.40;99.90;;;;;;5011846;28;20226;-62
2021/03/01 02:43:22;;;;;;;66.77;25.73;;;2.40;99.90;;;;;;5003739;28;20177;-62
2021/03/01 02:45:49;;;;;;;58.17;27.33;;;2.40;99.90;;;;;;4992370;28;20188;-64
2021/03/01 02:48:16;;;;;;;69.80;26.90;;;2.40;99.90;;;;;;4999003;28;20184;-63
2021/03/01 02:50:44;;;;;;;66.37;26.67;;;2.40;99.90;;;;;;5011481;28;20646;-62
2021/03/01 02:53:12;;;;;;;59.57;26.60;;;2.40;99.90;;;;;;5006295;28;20189;-62
2021/03/01 02:55:39;;;;;;;67.87;25.73;;;2.30;99.90;;;;;;4995685;28;20291;-63
2021/03/01 02:58:06;;;;;;;58.23;26.43;;;2.20;99.90;;;;;;5011680;28;20172;-63
2021/03/01 03:00:32;;;;;;;65.67;28.57;;;2.20;99.90;;;;;;5008472;28;20211;-63
2021/03/01 03:02:58;;;;;;;65.40;26.43;;;2.20;99.90;;;;;;4992085;28;20201;-63
2021/03/01 03:05:26;;;;;;;68.93;27.30;;;2.20;99.90;;;;;;4993063;28;20684;-63
2021/03/01 03:07:52;;;;;;;65.40;27.67;;;2.20;99.90;;;;;;4992892;28;20193;-67
2021/03/01 03:10:19;;;;;;;62.00;27.03;;;2.10;99.90;;;;;;4997420;28;20176;-68
2021/03/01 03:12:45;;;;;;;61.67;28.03;;;2.10;99.90;;;;;;5018330;28;20178;-69
2021/03/01 03:15:21;;;;;;;69.43;27.77;;;2.10;99.90;;;;;;5016285;28;20216;-65
2021/03/01 03:17:49;;;;;;;71.90;28.47;;;2.10;99.90;;;;;;4982045;28;20200;-68
2021/03/01 03:20:15;;;;;;;66.20;29.20;;;2.00;99.90;;;;;;5011781;28;20573;-69
2021/03/01 03:22:40;;;;;;;80.13;29.43;;;2.00;99.90;;;;;;5019950;28;20179;-66
2021/03/01 03:25:08;;;;;;;64.53;26.77;;;2.00;99.90;;;;;;5008567;28;20208;-67
2021/03/01 03:27:34;;;;;;;75.90;27.10;;;2.00;99.90;;;;;;4982032;28;20180;-68
2021/03/01 03:29:59;;;;;;;73.20;27.47;;;2.00;99.90;;;;;;5008783;28;20246;-67
2021/03/01 03:32:26;;;;;;;58.93;27.77;;;2.00;99.90;;;;;;5016640;28;20187;-69
2021/03/01 03:34:51;;;;;;;65.23;27.47;;;2.00;99.90;;;;;;4982392;28;20300;-67
2021/03/01 03:37:31;;;;;;;74.77;28.60;;;1.90;99.90;;;;;;4999228;28;20185;-69
2021/03/01 03:39:58;;;;;;;69.73;28.60;;;1.90;99.90;;;;;;5019521;28;20191;-68
2021/03/01 03:42:27;;;;;;;67.87;29.70;;;1.90;99.90;;;;;;5017735;28;20318;-70
2021/03/01 03:44:54;;;;;;;67.27;27.13;;;1.80;99.90;;;;;;4999587;28;20193;-68
2021/03/01 03:47:22;;;;;;;67.07;28.03;;;1.80;99.90;;;;;;4999781;28;20169;-67
2021/03/01 03:49:49;;;;;;;71.00;29.53;;;1.70;99.90;;;;;;4999244;28;20165;-67
2021/03/01 03:52:17;;;;;;;67.20;28.10;;;1.70;99.90;;;;;;4999667;28;20576;-66
2021/03/01 03:54:49;;;;;;;72.97;28.33;;;1.70;99.90;;;;;;5018619;28;20203;-67
2021/03/01 03:57:21;;;;;;;73.90;29.97;;;1.70;99.90;;;;;;5019021;28;20179;-67
2021/03/01 03:59:48;;;;;;;71.23;28.10;;;1.70;99.90;;;;;;4999801;28;20212;-66
2021/03/01 04:02:14;;;;;;;78.13;30.13;;;1.70;99.90;;;;;;4999301;28;20169;-66
2021/03/01 04:04:43;;;;;;;70.87;28.40;;;1.70;99.90;;;;;;4999165;28;20877;-68
2021/03/01 04:07:09;;;;;;;72.60;29.87;;;1.70;99.90;;;;;;4999279;28;20180;-66
2021/03/01 04:09:39;;;;;;;71.83;28.07;;;1.70;99.90;;;;;;5014917;28;20188;-67
2021/03/01 04:12:06;;;;;;;69.30;26.87;;;1.70;99.90;;;;;;5018622;28;20215;-67
2021/03/01 04:14:32;;;;;;;73.67;27.97;;;1.70;99.90;;;;;;5003947;28;20259;-68
2021/03/01 04:17:02;;;;;;;73.50;30.63;;;1.70;99.90;;;;;;4999281;28;20207;-67
2021/03/01 04:19:29;;;;;;;61.57;26.10;;;1.60;99.90;;;;;;5012832;28;20214;-67
2021/03/01 04:21:57;;;;;;;70.37;28.10;;;1.60;99.90;;;;;;5019708;28;20533;-70
2021/03/01 04:24:25;;;;;;;72.77;29.47;;;1.60;99.90;;;;;;5002854;28;20219;-68
2021/03/01 04:26:51;;;;;;;72.13;27.53;;;1.60;99.90;;;;;;4996535;28;20255;-66
2021/03/01 04:29:18;;;;;;;78.57;28.13;;;1.60;99.90;;;;;;5006804;28;20188;-69
2021/03/01 04:31:46;;;;;;;70.47;26.80;;;1.50;99.90;;;;;;5010535;28;20188;-68
2021/03/01 04:34:12;;;;;;;64.77;25.57;;;1.50;99.90;;;;;;4996096;28;20224;-65
2021/03/01 04:36:40;;;;;;;77.90;28.93;;;1.50;99.90;;;;;;4997686;28;20646;-66
2021/03/01 04:39:06;;;;;;;84.20;29.53;;;1.50;99.90;;;;;;5015712;28;20176;-69
2021/03/01 04:41:34;;;;;;;75.77;29.50;;;1.60;99.90;;;;;;5014312;28;20242;-72
2021/03/01 04:44:01;;;;;;;79.77;27.07;;;1.60;99.90;;;;;;5015393;28;20184;-67
2021/03/01 04:46:28;;;;;;;70.77;27.23;;;1.60;99.90;;;;;;5014546;28;20180;-65
2021/03/01 04:48:54;;;;;;;77.23;29.20;;;1.60;99.90;;;;;;4994516;28;20184;-64
2021/03/01 04:51:23;;;;;;;77.83;28.70;;;1.60;99.90;;;;;;4993873;28;20220;-64
2021/03/01 04:53:49;;;;;;;66.63;27.23;;;1.50;99.90;;;;;;5003610;28;20219;-65
2021/03/01 04:56:15;;;;;;;74.80;27.10;;;1.50;99.90;;;;;;4994242;28;20196;-64
2021/03/01 04:58:42;;;;;;;65.67;27.33;;;1.50;99.90;;;;;;5010315;28;20235;-65
2021/03/01 05:01:08;;;;;;;64.07;26.97;;;1.50;99.90;;;;;;5002195;28;20674;-65
2021/03/01 05:03:35;;;;;;;75.97;28.07;;;1.40;99.90;;;;;;4993843;28;20605;-64
2021/03/01 05:06:02;;;;;;;73.87;26.13;;;1.40;99.90;;;;;;5012864;28;20187;-64
2021/03/01 05:08:29;;;;;;;68.43;27.27;;;1.40;99.90;;;;;;5013796;28;20223;-64
2021/03/01 05:10:58;;;;;;;67.93;26.50;;;1.50;99.90;;;;;;4995569;28;20204;-64
2021/03/01 05:13:24;;;;;;;72.07;25.93;;;1.40;99.90;;;;;;4993692;28;20271;-63
2021/03/01 05:15:50;;;;;;;76.80;27.50;;;1.40;99.90;;;;;;4994689;28;20223;-64
2021/03/01 05:18:16;;;;;;;72.53;27.53;;;1.40;99.90;;;;;;4993820;28;20169;-64
2021/03/01 05:20:41;;;;;;;69.63;24.60;;;1.40;99.90;;;;;;5007515;28;20533;-63
2021/03/01 05:23:07;;;;;;;73.23;26.83;;;1.30;99.90;;;;;;5013282;28;20592;-64
2021/03/01 05:25:33;;;;;;;82.17;27.43;;;1.20;99.90;;;;;;5012551;28;20218;-64
2021/03/01 05:28:00;;;;;;;72.30;25.20;;;1.20;99.90;;;;;;5013310;28;20266;-64
2021/03/01 05:30:26;;;;;;;71.23;24.20;;;1.20;99.90;;;;;;5001618;28;20176;-63
2021/03/01 05:32:51;;;;;;;81.07;27.23;;;1.20;99.90;;;;;;4998002;28;20184;-64
2021/03/01 05:35:17;;;;;;;70.17;26.43;;;1.10;99.90;;;;;;5012526;28;20561;-63
2021/03/01 05:37:43;;;;;;;80.83;25.93;;;1.10;99.90;;;;;;5009830;28;20181;-63
2021/03/01 05:40:09;;;;;;;84.80;28.10;;;1.20;99.90;;;;;;4993191;28;20188;-63
2021/03/01 05:42:36;;;;;;;64.20;25.43;;;1.20;99.90;;;;;;4994200;28;20251;-63
2021/03/01 05:45:07;;;;;;;74.10;27.00;;;1.20;99.90;;;;;;5013007;28;20185;-64
2021/03/01 05:47:34;;;;;;;70.00;25.97;;;1.10;99.90;;;;;;5012479;28;20176;-64
2021/03/01 05:50:01;;;;;;;76.70;25.73;;;1.10;99.90;;;;;;4993002;28;20196;-64
2021/03/01 05:52:28;;;;;;;78.43;27.77;;;1.10;99.90;;;;;;4993052;28;20208;-63
2021/03/01 05:54:54;;;;;;;69.20;26.80;;;1.00;99.90;;;;;;4993568;28;20200;-63
2021/03/01 05:57:22;;;;;;;81.93;28.23;;;1.00;99.90;;;;;;5012438;28;20588;-63
2021/03/01 05:59:48;;;;;;;79.47;27.10;;;0.90;99.90;;;;;;5010752;28;20176;-63
2021/03/01 06:02:16;;;;;;;66.40;24.50;;;0.90;99.90;;;;;;5001445;28;20187;-63
2021/03/01 06:04:42;;;;;;;84.53;26.27;;;0.80;99.90;;;;;;4992754;28;20189;-63
2021/03/01 06:07:08;;;;;;;76.73;24.87;;;0.80;99.90;;;;;;5001830;28;20187;-63
2021/03/01 06:09:33;;;;;;;76.77;24.97;;;0.80;99.90;;;;;;4998231;28;20177;-63
2021/03/01 06:11:59;;;;;;;71.83;26.30;;;0.80;99.90;;;;;;4999784;28;20191;-63
2021/03/01 06:14:25;;;;;;;77.13;26.37;;;0.80;99.90;;;;;;5009777;28;20192;-63
2021/03/01 06:17:13;;;;;;;70.13;25.07;;;0.80;99.90;;;;;;4996890;28;20214;-63
2021/03/01 06:19:52;;;;;;;85.33;27.23;;;0.70;99.90;;;;;;5008614;28;20307;-64
2021/03/01 06:22:20;;;;;;;78.07;26.27;;;0.80;99.90;;;;;;4975277;28;20173;-63
2021/03/01 06:25:05;;;;;;;91.10;27.50;;;0.80;99.90;;;;;;4996100;28;20294;-63
2021/03/01 06:27:43;;;;;;;76.73;25.90;;;0.80;99.90;;;;;;5012041;28;20206;-64
2021/03/01 06:30:10;;;;;;;74.40;27.33;;;0.90;99.90;;;;;;5005669;28;20187;-63
2021/03/01 06:32:36;;;;;;;72.10;26.40;;;0.80;99.90;;;;;;4993416;28;20204;-64
2021/03/01 06:35:03;;;;;;;71.67;25.33;;;0.90;99.90;;;;;;4992621;28;20197;-64
2021/03/01 06:37:29;;;;;;;76.50;27.17;;;0.90;99.90;;;;;;5006022;28;20642;-64
2021/03/01 06:39:55;;;;;;;68.47;25.30;;;1.00;99.90;;;;;;5011996;28;20227;-64
2021/03/01 06:42:30;;;;;;;75.67;24.50;;;1.00;99.90;;;;;;4999205;28;20642;-63
2021/03/01 06:44:58;;;;;;;72.67;26.60;;;1.00;99.90;;;;;;4992306;28;20223;-64
2021/03/01 06:47:42;;;;;;;82.47;27.83;;;1.10;99.90;;;;;;5003219;28;20238;-63
2021/03/01 06:50:33;;;;;;;75.33;25.87;;;1.20;99.90;;;;;;5011618;28;20717;-63
2021/03/01 06:53:13;;;;;;;79.17;25.93;;;1.20;99.90;;;;;;4989189;28;20662;-64
2021/03/01 06:55:55;;;;;;;80.13;25.93;;;1.30;99.90;;;;;;4997334;28;20208;-64
2021/03/01 06:58:24;;;;;;;68.07;27.03;;;1.40;99.90;;;;;;5004419;28;20218;-63
2021/03/01 07:01:02;;;;;;;84.73;27.83;;;1.50;99.90;;;;;;5011378;28;20314;-63
2021/03/01 07:03:28;;;;;;;71.63;25.67;;;1.50;99.90;;;;;;4996684;28;20188;-63
2021/03/01 07:05:56;;;;;;;78.30;26.20;;;1.60;99.90;;;;;;5006234;28;20207;-64
2021/03/01 07:08:52;;;;;;;73.00;26.93;;;1.70;99.90;;;;;;4998512;28;20260;-63
2021/03/01 07:11:36;;;;;;;87.47;26.67;;;1.90;99.90;;;;;;4990886;28;20216;-63
2021/03/01 07:14:07;;;;;;;78.33;26.97;;;1.90;99.90;;;;;;5009415;28;20200;-64
2021/03/01 07:16:52;;;;;;;78.17;27.53;;;2.00;99.90;;;;;;5011445;28;20290;-63
2021/03/01 07:19:26;;;;;;;78.27;27.03;;;2.10;99.90;;;;;;4992234;28;20713;-61
2021/03/01 07:21:55;;;;;;;85.00;28.43;;;2.30;99.90;;;;;;4991725;28;20180;-65
2021/03/01 07:24:23;;;;;;;82.70;29.27;;;2.40;99.90;;;;;;5010370;28;20204;-62
2021/03/01 07:26:56;;;;;;;80.67;29.20;;;2.80;99.90;;;;;;5008503;28;20195;-64
2021/03/01 07:29:23;;;;;;;71.87;29.10;;;3.20;99.90;;;;;;5009936;28;20287;-63
2021/03/01 07:32:06;;;;;;;64.97;26.87;;;3.80;99.90;;;;;;5009055;28;20255;-64
2021/03/01 07:34:33;;;;;;;57.33;23.80;;;4.40;99.90;;;;;;4991721;28;20678;-63
2021/03/01 07:37:00;;;;;;;44.57;22.57;;;4.80;99.90;;;;;;4993716;28;20650;-64
2021/03/01 07:39:27;;;;;;;42.80;22.87;;;5.20;99.90;;;;;;5011426;28;20238;-64
2021/03/01 07:41:54;;;;;;;36.67;20.00;;;5.60;99.90;;;;;;5009602;28;20172;-65
2021/03/01 07:44:33;;;;;;;37.73;21.20;;;6.00;99.90;;;;;;4991788;28;20192;-64
2021/03/01 07:47:02;;;;;;;29.53;17.90;;;6.60;99.90;;;;;;4975682;28;20183;-63
2021/03/01 07:49:48;;;;;;;27.40;17.33;;;7.00;99.90;;;;;;5008235;28;20176;-63
2021/03/01 07:52:20;;;;;;;24.27;16.03;;;7.40;99.90;;;;;;4992789;28;20188;-63
2021/03/01 07:55:00;;;;;;;20.83;14.33;;;7.80;99.90;;;;;;4990806;28;20207;-63
2021/03/01 07:57:28;;;;;;;22.87;14.90;;;7.70;99.90;;;;;;4996121;28;20180;-63
2021/03/01 07:59:56;;;;;;;21.87;13.83;;;7.70;99.90;;;;;;5014428;28;20227;-63
2021/03/01 08:02:32;;;;;;;21.53;14.00;;;7.90;99.90;;;;;;5007126;28;20586;-63
2021/03/01 08:04:59;;;;;;;18.97;13.33;;;7.80;99.90;;;;;;4995193;28;20231;-63
2021/03/01 08:07:42;;;;;;;20.60;13.20;;;7.90;99.90;;;;;;5000099;28;20230;-64
2021/03/01 08:10:12;;;;;;;15.87;11.10;;;7.70;99.90;;;;;;5014405;28;20608;-64
2021/03/01 08:12:39;;;;;;;18.97;13.47;;;7.90;99.90;;;;;;5006714;28;20240;-64
2021/03/01 08:15:08;;;;;;;17.73;12.13;;;8.20;99.90;;;;;;4994204;28;20200;-64
2021/03/01 08:17:35;;;;;;;18.27;12.57;;;8.50;99.90;;;;;;5000740;28;20219;-64
2021/03/01 08:20:14;;;;;;;16.37;11.40;;;8.90;99.90;;;;;;5014288;28;20168;-64
2021/03/01 08:23:10;;;;;;;15.37;11.67;;;9.30;99.90;;;;;;4996534;28;20176;-64
2021/03/01 08:28:22;;;;;;;16.07;11.90;;;9.80;99.90;;;;;;4994812;28;20187;-64
2021/03/01 08:30:49;;;;;;;16.30;11.03;;;9.80;99.90;;;;;;4995200;28;20177;-64
2021/03/01 08:33:15;;;;;;;15.43;10.70;;;10.20;99.90;;;;;;5014336;28;20204;-65
2021/03/01 08:35:51;;;;;;;13.80;10.20;;;10.40;99.90;;;;;;5013648;28;20211;-63
2021/03/01 08:38:39;;;;;;;15.70;11.13;;;10.90;99.90;;;;;;4994545;28;20259;-64
2021/03/01 08:41:04;;;;;;;12.93;9.63;;;11.30;99.90;;;;;;4979007;28;20181;-65
2021/03/01 08:43:37;;;;;;;13.17;10.00;;;11.20;99.90;;;;;;5003674;28;20177;-65
2021/03/01 08:46:04;;;;;;;14.47;10.57;;;11.40;99.90;;;;;;4995451;28;20220;-63
2021/03/01 08:48:30;;;;;;;15.43;10.60;;;11.50;99.90;;;;;;5013821;28;20172;-64
2021/03/01 08:50:56;;;;;;;15.07;10.93;;;11.50;99.90;;;;;;4995110;28;20185;-65
2021/03/01 08:53:29;;;;;;;13.87;10.67;;;12.00;99.90;;;;;;4994278;28;20180;-65
2021/03/01 08:55:57;;;;;;;12.77;9.77;;;12.50;99.90;;;;;;4995264;28;20201;-65
2021/03/01 08:58:29;;;;;;;13.60;10.30;;;13.00;99.90;;;;;;4994070;28;20196;-65
2021/03/01 09:00:59;;;;;;;12.60;10.00;;;13.40;99.90;;;;;;5010401;28;20172;-65
2021/03/01 09:03:26;;;;;;;14.87;10.10;;;13.50;99.90;;;;;;5009270;28;20169;-65
2021/03/01 09:06:00;;;;;;;13.53;8.87;;;13.40;99.90;;;;;;4993913;28;20224;-65
2021/03/01 09:08:40;;;;;;;15.73;10.57;;;13.50;99.90;;;;;;4997069;28;20172;-65
2021/03/01 09:11:17;;;;;;;14.37;9.57;;;13.80;99.90;;;;;;5012826;28;20258;-65
2021/03/01 09:13:45;;;;;;;15.87;9.63;;;14.30;99.90;;;;;;5011612;28;20184;-65
2021/03/01 09:16:15;;;;;;;11.53;9.47;;;14.30;99.90;;;;;;5013574;28;20209;-65
2021/03/01 09:18:44;;;;;;;13.10;10.70;;;14.60;99.90;;;;;;4998629;28;20184;-65
2021/03/01 09:21:14;;;;;;;12.43;9.50;;;15.00;99.90;;;;;;4993507;28;20266;-65
2021/03/01 09:23:46;;;;;;;12.53;8.20;;;15.20;99.90;;;;;;5006940;28;20179;-65
2021/03/01 09:26:26;;;;;;;12.53;9.73;;;15.50;99.90;;;;;;5013426;28;20176;-65
2021/03/01 09:29:11;;;;;;;11.63;9.77;;;15.90;99.90;;;;;;4998361;28;20279;-65
2021/03/01 09:31:42;;;;;;;12.57;9.00;;;16.10;99.90;;;;;;4993064;28;20177;-65
2021/03/01 09:34:09;;;;;;;14.07;9.03;;;16.20;99.90;;;;;;5009921;28;20673;-65
2021/03/01 09:36:36;;;;;;;10.80;8.47;;;15.70;99.90;;;;;;5012937;28;20212;-65
2021/03/01 09:39:05;;;;;;;12.03;9.27;;;15.50;99.90;;;;;;5006887;28;20177;-65
2021/03/01 09:41:38;;;;;;;10.83;8.93;;;15.60;99.90;;;;;;5012359;28;20169;-65
2021/03/01 09:44:05;;;;;;;14.60;9.43;;;15.60;99.90;;;;;;5008665;28;20196;-64
2021/03/01 09:46:32;;;;;;;13.90;9.13;;;16.00;99.90;;;;;;5012199;28;20199;-65
2021/03/01 09:49:02;;;;;;;11.03;7.10;;;16.60;99.90;;;;;;5010934;28;20187;-65
2021/03/01 09:51:29;;;;;;;8.97;7.37;;;16.70;99.90;;;;;;5012285;28;20206;-65
2021/03/01 09:54:03;;;;;;;11.73;8.03;;;16.20;99.90;;;;;;5011992;28;20211;-65
2021/03/01 09:56:37;;;;;;;11.57;8.03;;;15.80;99.90;;;;;;5012490;28;20196;-65
2021/03/01 09:59:03;;;;;;;10.20;7.73;;;16.00;99.90;;;;;;5000026;28;20179;-65
2021/03/01 10:01:28;;;;;;;13.87;8.47;;;16.30;99.90;;;;;;4992528;28;20529;-65
2021/03/01 10:03:54;;;;;;;9.67;7.07;;;15.80;99.90;;;;;;4994021;28;20297;-65
2021/03/01 10:06:38;;;;;;;13.00;8.40;;;16.00;99.90;;;;;;4993189;28;20173;-65
2021/03/01 10:09:06;;;;;;;9.27;6.83;;;16.10;99.90;;;;;;5003889;28;20237;-65
2021/03/01 10:11:33;;;;;;;10.77;7.33;;;16.30;99.90;;;;;;5007036;28;20188;-65
2021/03/01 10:14:11;;;;;;;9.57;6.93;;;16.60;99.90;;;;;;4992748;28;20218;-65
2021/03/01 10:16:39;;;;;;;9.37;7.37;;;16.20;99.90;;;;;;4997228;28;20204;-65
2021/03/01 10:19:15;;;;;;;10.13;6.97;;;16.40;99.90;;;;;;5012409;28;20264;-65
2021/03/01 10:21:42;;;;;;;8.97;6.70;;;16.60;99.90;;;;;;5005757;28;20187;-65
2021/03/01 10:24:10;;;;;;;11.77;7.07;;;16.50;99.90;;;;;;5011025;28;20211;-65
2021/03/01 10:27:00;;;;;;;11.43;7.47;;;16.60;99.90;;;;;;5008452;28;20189;-65
2021/03/01 10:29:33;;;;;;;8.93;6.93;;;16.70;99.90;;;;;;4992448;28;20173;-65
2021/03/01 10:32:00;;;;;;;12.75;8.02;;;17.00;99.90;;;;;;4998006;28;20176;-65
2021/03/01 10:34:29;;;;;;;9.23;6.90;;;17.30;99.90;;;;;;5011954;28;20196;-65
2021/03/01 10:36:57;;;;;;;14.02;7.85;;;17.80;99.90;;;;;;5006897;28;20206;-65
2021/03/01 10:39:24;;;;;;;10.40;7.13;;;17.90;99.90;;;;;;4994245;28;21774;-65
2021/03/01 10:41:52;;;;;;;10.65;7.15;;;18.20;99.90;;;;;;5011537;28;20172;-65
2021/03/01 10:44:25;;;;;;;8.82;6.97;;;18.10;99.90;;;;;;5010769;28;20206;-65
2021/03/01 10:46:51;;;;;;;14.05;7.55;;;18.30;99.90;;;;;;4995768;28;20206;-65
2021/03/01 10:49:21;;;;;;;10.05;7.35;;;18.30;99.90;;;;;;5011437;28;20175;-65
2021/03/01 10:51:51;;;;;;;12.32;6.60;;;18.50;99.90;;;;;;4991646;28;20716;-65
2021/03/01 10:54:17;;;;;;;11.07;6.75;;;18.70;99.90;;;;;;4992435;28;20638;-65
2021/03/01 10:56:43;;;;;;;12.52;7.25;;;19.00;99.90;;;;;;5011137;28;20206;-65
2021/03/01 10:59:09;;;;;;;16.05;7.28;;;19.10;99.90;;;;;;5011788;28;20638;-65
2021/03/01 11:01:39;;;;;;;14.68;7.60;;;19.40;99.90;;;;;;4992952;28;20204;-65
2021/03/01 11:04:06;;;;;;;11.10;7.82;;;19.20;99.90;;;;;;5003923;28;20200;-65
2021/03/01 11:06:32;;;;;;;10.63;7.45;;;19.00;99.90;;;;;;5011525;28;20190;-65
2021/03/01 11:08:59;;;;;;;11.93;7.82;;;18.90;99.90;;;;;;5010025;28;20202;-65
2021/03/01 11:11:25;;;;;;;13.48;7.10;;;18.70;99.90;;;;;;5011207;28;20184;-65
2021/03/01 11:13:51;;;;;;;10.15;7.10;;;18.70;99.90;;;;;;4999217;28;20643;-65
2021/03/01 11:16:17;;;;;;;11.65;7.10;;;18.80;99.90;;;;;;4991780;28;20204;-65
2021/03/01 11:18:42;;;;;;;8.65;7.07;;;19.10;99.90;;;;;;5001823;28;20175;-65
2021/03/01 11:21:09;;;;;;;12.90;7.75;;;19.10;99.90;;;;;;5008563;28;20198;-65
2021/03/01 11:23:34;;;;;;;11.13;6.65;;;18.50;99.90;;;;;;5010766;28;20176;-65
2021/03/01 11:26:00;;;;;;;14.73;7.68;;;18.00;99.90;;;;;;5011421;28;20184;-65
2021/03/01 11:28:26;;;;;;;11.10;7.43;;;18.20;99.90;;;;;;5010567;28;20254;-65
2021/03/01 11:30:52;;;;;;;15.50;7.63;;;18.10;99.90;;;;;;5011147;28;20259;-65
2021/03/01 11:33:18;;;;;;;9.48;6.80;;;18.20;99.90;;;;;;5013335;28;20179;-65
2021/03/01 11:35:44;;;;;;;10.02;6.93;;;18.70;99.90;;;;;;5015631;28;20227;-65
2021/03/01 11:38:10;;;;;;;11.68;7.78;;;18.80;99.90;;;;;;5015493;28;20176;-65
2021/03/01 11:40:35;;;;;;;9.75;6.90;;;18.60;99.90;;;;;;5014882;28;20183;-65
2021/03/01 11:43:01;;;;;;;11.30;7.40;;;18.60;99.90;;;;;;5015256;28;20211;-65
2021/03/01 11:45:26;;;;;;;10.77;7.13;;;18.40;99.90;;;;;;5015044;28;20196;-65
2021/03/01 11:47:52;;;;;;;12.68;7.03;;;18.30;99.90;;;;;;5015041;28;20558;-65
2021/03/01 11:50:18;;;;;;;11.45;7.53;;;18.50;99.90;;;;;;5014810;28;20661;-65
2021/03/01 11:52:44;;;;;;;9.95;7.35;;;18.90;99.90;;;;;;5015001;28;20184;-65
2021/03/01 11:55:11;;;;;;;12.25;6.95;;;19.20;99.90;;;;;;5015024;28;20283;-65
2021/03/01 11:57:37;;;;;;;10.32;6.53;;;18.90;99.90;;;;;;5014885;28;20230;-65
2021/03/01 12:00:05;;;;;;;14.40;7.68;;;19.00;99.90;;;;;;5014574;28;20634;-65
2021/03/01 12:02:31;;;;;;;14.73;7.55;;;18.90;99.90;;;;;;5014560;28;20653;-65
2021/03/01 12:04:57;;;;;;;9.65;7.13;;;19.00;99.90;;;;;;4998787;28;20200;-65
2021/03/01 12:07:23;;;;;;;12.88;7.55;;;18.90;99.90;;;;;;4995127;28;20215;-65
2021/03/01 12:09:48;;;;;;;10.60;7.28;;;18.70;99.90;;;;;;5009034;28;20188;-65
2021/03/01 12:12:14;;;;;;;12.35;7.03;;;19.00;99.90;;;;;;5009886;28;20210;-65
2021/03/01 12:14:40;;;;;;;11.38;6.93;;;19.00;99.90;;;;;;5014285;28;20203;-65
2021/03/01 12:17:05;;;;;;;11.70;7.18;;;19.20;99.90;;;;;;5005608;28;20212;-65
2021/03/01 12:19:31;;;;;;;9.68;6.95;;;19.10;99.90;;;;;;4994104;28;20231;-65
2021/03/01 12:21:56;;;;;;;8.73;6.55;;;19.40;99.90;;;;;;5001143;28;20244;-65
2021/03/01 12:24:22;;;;;;;12.45;7.88;;;19.30;99.90;;;;;;5014456;28;20207;-65
2021/03/01 12:26:49;;;;;;;9.73;7.10;;;19.20;99.90;;;;;;5009010;28;20262;-65
2021/03/01 12:29:15;;;;;;;9.68;6.45;;;19.70;99.90;;;;;;4994723;28;20259;-65
2021/03/01 12:31:40;;;;;;;13.18;7.25;;;19.90;99.90;;;;;;4997808;28;20315;-65
2021/03/01 12:34:06;;;;;;;11.15;6.38;;;20.20;99.90;;;;;;5013764;28;20196;-65
2021/03/01 12:36:32;;;;;;;10.27;6.47;;;20.50;99.90;;;;;;5012416;28;20455;-65
2021/03/01 12:38:57;;;;;;;10.40;6.35;;;20.60;99.40;;;;;;5014059;28;20173;-65
2021/03/01 12:41:23;;;;;;;9.45;6.30;;;20.70;99.60;;;;;;4999142;28;20177;-65
2021/03/01 12:43:49;;;;;;;15.23;6.88;;;20.30;99.30;;;;;;4993609;28;20308;-65
2021/03/01 12:46:15;;;;;;;10.15;7.30;;;20.20;99.40;;;;;;5005862;28;20188;-65
2021/03/01 12:48:40;;;;;;;9.02;6.38;;;19.80;99.20;;;;;;5013772;28;20258;-65